Current Weather

Eureka

Eureka, Canada (CWEU)

Report from: Sunday, December 4, 2022 5:00 AM CST
Current time: Sunday, December 4, 2022 6:00 AM CST

Nearby weather
Weather history
Weather forecast

Present weatherLight snow, drifting snow
Temperature-28.0°C (-18.4°F)
Wind chill-39.5°C (-39.1°F)
Dew point-32.0°C (-25.6°F)
Winds 9 kts (4.6 m/s, 10.4 mph) South-Southeast (150°)
Visibility10 mi. (16.1 km)
Clouds Scattered clouds 6,000 ft. (1,829 m)
Ceiling: Broken clouds 10,000 ft. (3,048 m)
Broken clouds 21,000 ft. (6,401 m)
Altimeter30.03 in.Hg (1017 mB)
Relative humidity68 %
Density altitude-5,732 ft. (-1,747 m)
Sea-level pressure101.9 kPa (1019 mB, 30.08 in.Hg)
Flight conditions Visual Meteorological Conditions
Raw dataCWEU 041100Z 15009KT 10SM -SN DRSN SCT060 BKN100 BKN210 M28/M32 A3003 RMK SC3AC3CI1 SLP186
An error has occurred. This application may no longer respond until reloaded. Reload 🗙